sensor_id;sensor_type;location;lat;lon;timestamp;temperature;humidity
65876;HTU21D;52657;51.128;5.938;2023-03-14T00:01:23;14.15;69.20
65876;HTU21D;52657;51.128;5.938;2023-03-14T00:03:50;14.10;69.69
65876;HTU21D;52657;51.128;5.938;2023-03-14T00:06:17;14.03;69.89
65876;HTU21D;52657;51.128;5.938;2023-03-14T00:08:44;14.01;69.89
65876;HTU21D;52657;51.128;5.938;2023-03-14T00:11:17;14.00;69.90
65876;HTU21D;52657;51.128;5.938;2023-03-14T00:13:43;13.98;70.01
65876;HTU21D;52657;51.128;5.938;2023-03-14T00:16:12;13.95;69.94
65876;HTU21D;52657;51.128;5.938;2023-03-14T00:18:39;13.93;69.83
65876;HTU21D;52657;51.128;5.938;2023-03-14T00:21:07;13.82;69.97
65876;HTU21D;52657;51.128;5.938;2023-03-14T00:23:35;13.77;70.01
65876;HTU21D;52657;51.128;5.938;2023-03-14T00:26:21;13.68;70.03
65876;HTU21D;52657;51.128;5.938;2023-03-14T00:28:51;13.59;70.00
65876;HTU21D;52657;51.128;5.938;2023-03-14T00:31:18;13.58;69.68
65876;HTU21D;52657;51.128;5.938;2023-03-14T00:33:44;13.53;69.61
65876;HTU21D;52657;51.128;5.938;2023-03-14T00:36:16;13.54;69.61
65876;HTU21D;52657;51.128;5.938;2023-03-14T00:38:44;13.53;69.37
65876;HTU21D;52657;51.128;5.938;2023-03-14T00:41:13;13.52;69.13
65876;HTU21D;52657;51.128;5.938;2023-03-14T00:43:40;13.49;68.99
65876;HTU21D;52657;51.128;5.938;2023-03-14T00:46:07;13.46;68.82
65876;HTU21D;52657;51.128;5.938;2023-03-14T00:48:33;13.44;68.56
65876;HTU21D;52657;51.128;5.938;2023-03-14T00:51:00;13.43;68.58
65876;HTU21D;52657;51.128;5.938;2023-03-14T00:53:26;13.43;68.45
65876;HTU21D;52657;51.128;5.938;2023-03-14T00:55:52;13.43;68.37
65876;HTU21D;52657;51.128;5.938;2023-03-14T00:58:18;13.44;68.31
65876;HTU21D;52657;51.128;5.938;2023-03-14T01:00:45;13.48;68.25
65876;HTU21D;52657;51.128;5.938;2023-03-14T01:03:12;13.49;68.18
65876;HTU21D;52657;51.128;5.938;2023-03-14T01:05:38;13.37;68.18
65876;HTU21D;52657;51.128;5.938;2023-03-14T01:08:06;13.37;68.42
65876;HTU21D;52657;51.128;5.938;2023-03-14T01:10:34;13.32;68.46
65876;HTU21D;52657;51.128;5.938;2023-03-14T01:12:59;13.32;68.51
65876;HTU21D;52657;51.128;5.938;2023-03-14T01:15:25;13.34;68.32
65876;HTU21D;52657;51.128;5.938;2023-03-14T01:17:51;13.35;68.32
65876;HTU21D;52657;51.128;5.938;2023-03-14T01:20:18;13.39;68.20
65876;HTU21D;52657;51.128;5.938;2023-03-14T01:22:44;13.40;68.11
65876;HTU21D;52657;51.128;5.938;2023-03-14T01:25:15;13.43;68.09
65876;HTU21D;52657;51.128;5.938;2023-03-14T01:27:41;13.40;68.13
65876;HTU21D;52657;51.128;5.938;2023-03-14T01:30:09;13.43;68.29
65876;HTU21D;52657;51.128;5.938;2023-03-14T01:32:35;13.43;68.33
65876;HTU21D;52657;51.128;5.938;2023-03-14T01:35:01;13.40;68.49
65876;HTU21D;52657;51.128;5.938;2023-03-14T01:37:27;13.43;68.61
65876;HTU21D;52657;51.128;5.938;2023-03-14T01:39:52;13.41;68.61
65876;HTU21D;52657;51.128;5.938;2023-03-14T01:42:19;13.41;68.66
65876;HTU21D;52657;51.128;5.938;2023-03-14T01:44:50;13.37;68.84
65876;HTU21D;52657;51.128;5.938;2023-03-14T01:47:15;13.34;68.97
65876;HTU21D;52657;51.128;5.938;2023-03-14T01:49:46;13.34;69.03
65876;HTU21D;52657;51.128;5.938;2023-03-14T01:52:36;13.35;68.84
65876;HTU21D;52657;51.128;5.938;2023-03-14T01:55:12;13.32;68.78
65876;HTU21D;52657;51.128;5.938;2023-03-14T01:57:47;13.34;68.78
65876;HTU21D;52657;51.128;5.938;2023-03-14T02:00:17;13.25;68.88
65876;HTU21D;52657;51.128;5.938;2023-03-14T02:02:49;13.22;69.09
65876;HTU21D;52657;51.128;5.938;2023-03-14T02:05:22;13.23;69.08
65876;HTU21D;52657;51.128;5.938;2023-03-14T02:07:56;13.29;68.84
65876;HTU21D;52657;51.128;5.938;2023-03-14T02:10:37;13.27;68.73
65876;HTU21D;52657;51.128;5.938;2023-03-14T02:13:05;13.26;68.56
65876;HTU21D;52657;51.128;5.938;2023-03-14T02:15:54;13.24;68.60
65876;HTU21D;52657;51.128;5.938;2023-03-14T02:18:39;13.22;68.62
65876;HTU21D;52657;51.128;5.938;2023-03-14T02:21:34;13.25;68.45
65876;HTU21D;52657;51.128;5.938;2023-03-14T02:26:44;13.20;68.55
65876;HTU21D;52657;51.128;5.938;2023-03-14T02:29:11;13.21;68.51
65876;HTU21D;52657;51.128;5.938;2023-03-14T02:31:36;13.27;68.35
65876;HTU21D;52657;51.128;5.938;2023-03-14T02:34:03;13.27;68.32
65876;HTU21D;52657;51.128;5.938;2023-03-14T02:36:30;13.26;68.30
65876;HTU21D;52657;51.128;5.938;2023-03-14T02:39:00;13.31;68.15
65876;HTU21D;52657;51.128;5.938;2023-03-14T02:41:30;13.29;68.07
65876;HTU21D;52657;51.128;5.938;2023-03-14T02:44:02;13.30;68.07
65876;HTU21D;52657;51.128;5.938;2023-03-14T02:46:29;13.32;67.97
65876;HTU21D;52657;51.128;5.938;2023-03-14T02:49:04;13.34;68.02
65876;HTU21D;52657;51.128;5.938;2023-03-14T02:51:32;13.41;67.82
65876;HTU21D;52657;51.128;5.938;2023-03-14T02:53:58;13.50;67.65
65876;HTU21D;52657;51.128;5.938;2023-03-14T02:56:25;13.50;67.57
65876;HTU21D;52657;51.128;5.938;2023-03-14T02:58:51;13.49;67.62
65876;HTU21D;52657;51.128;5.938;2023-03-14T03:01:42;13.40;67.88
65876;HTU21D;52657;51.128;5.938;2023-03-14T03:04:08;13.36;68.23
65876;HTU21D;52657;51.128;5.938;2023-03-14T03:06:34;13.37;68.65
65876;HTU21D;52657;51.128;5.938;2023-03-14T03:09:00;13.40;68.94
65876;HTU21D;52657;51.128;5.938;2023-03-14T03:11:26;13.36;69.15
65876;HTU21D;52657;51.128;5.938;2023-03-14T03:13:52;13.34;69.57
65876;HTU21D;52657;51.128;5.938;2023-03-14T03:16:18;13.33;69.80
65876;HTU21D;52657;51.128;5.938;2023-03-14T03:18:43;13.32;70.26
65876;HTU21D;52657;51.128;5.938;2023-03-14T03:21:09;13.31;70.64
65876;HTU21D;52657;51.128;5.938;2023-03-14T03:23:35;13.22;70.96
65876;HTU21D;52657;51.128;5.938;2023-03-14T03:26:00;13.09;71.49
65876;HTU21D;52657;51.128;5.938;2023-03-14T03:28:28;13.00;71.71
65876;HTU21D;52657;51.128;5.938;2023-03-14T03:30:54;12.94;72.18
65876;HTU21D;52657;51.128;5.938;2023-03-14T03:33:20;12.86;72.30
65876;HTU21D;52657;51.128;5.938;2023-03-14T03:35:49;12.73;72.60
65876;HTU21D;52657;51.128;5.938;2023-03-14T03:38:21;12.67;72.96
65876;HTU21D;52657;51.128;5.938;2023-03-14T03:40:50;12.61;73.18
65876;HTU21D;52657;51.128;5.938;2023-03-14T03:43:16;12.49;73.90
65876;HTU21D;52657;51.128;5.938;2023-03-14T03:45:44;12.52;73.78
65876;HTU21D;52657;51.128;5.938;2023-03-14T03:48:10;12.52;73.96
65876;HTU21D;52657;51.128;5.938;2023-03-14T03:50:35;12.56;74.00
65876;HTU21D;52657;51.128;5.938;2023-03-14T03:53:02;12.58;73.90
65876;HTU21D;52657;51.128;5.938;2023-03-14T03:55:27;12.56;73.75
65876;HTU21D;52657;51.128;5.938;2023-03-14T03:57:54;12.49;73.98
65876;HTU21D;52657;51.128;5.938;2023-03-14T04:00:19;12.51;73.94
65876;HTU21D;52657;51.128;5.938;2023-03-14T04:02:50;12.46;74.23
65876;HTU21D;52657;51.128;5.938;2023-03-14T04:05:17;12.37;74.17
65876;HTU21D;52657;51.128;5.938;2023-03-14T04:07:53;12.33;74.36
65876;HTU21D;52657;51.128;5.938;2023-03-14T04:10:23;12.36;74.46
65876;HTU21D;52657;51.128;5.938;2023-03-14T04:13:05;12.40;74.57
65876;HTU21D;52657;51.128;5.938;2023-03-14T04:15:33;12.47;74.64
65876;HTU21D;52657;51.128;5.938;2023-03-14T04:18:03;12.51;74.71
65876;HTU21D;52657;51.128;5.938;2023-03-14T04:20:30;12.58;74.62
65876;HTU21D;52657;51.128;5.938;2023-03-14T04:22:55;12.60;74.62
65876;HTU21D;52657;51.128;5.938;2023-03-14T04:25:21;12.62;74.73
65876;HTU21D;52657;51.128;5.938;2023-03-14T04:27:52;12.67;74.90
65876;HTU21D;52657;51.128;5.938;2023-03-14T04:30:22;12.73;74.95
65876;HTU21D;52657;51.128;5.938;2023-03-14T04:32:57;12.81;74.83
65876;HTU21D;52657;51.128;5.938;2023-03-14T04:35:25;12.85;74.68
65876;HTU21D;52657;51.128;5.938;2023-03-14T04:37:55;12.86;74.84
65876;HTU21D;52657;51.128;5.938;2023-03-14T04:40:21;12.81;74.89
65876;HTU21D;52657;51.128;5.938;2023-03-14T04:42:49;12.76;75.21
65876;HTU21D;52657;51.128;5.938;2023-03-14T04:45:15;12.74;75.34
65876;HTU21D;52657;51.128;5.938;2023-03-14T04:47:42;12.76;75.48
65876;HTU21D;52657;51.128;5.938;2023-03-14T04:50:11;12.79;75.38
65876;HTU21D;52657;51.128;5.938;2023-03-14T04:52:38;12.79;75.36
65876;HTU21D;52657;51.128;5.938;2023-03-14T04:55:04;12.76;75.45
65876;HTU21D;52657;51.128;5.938;2023-03-14T04:57:30;12.71;75.70
65876;HTU21D;52657;51.128;5.938;2023-03-14T04:59:57;12.71;75.76
65876;HTU21D;52657;51.128;5.938;2023-03-14T05:02:42;12.71;75.85
65876;HTU21D;52657;51.128;5.938;2023-03-14T05:05:26;12.69;75.89
65876;HTU21D;52657;51.128;5.938;2023-03-14T05:08:12;12.69;76.10
65876;HTU21D;52657;51.128;5.938;2023-03-14T05:10:54;12.74;76.05
65876;HTU21D;52657;51.128;5.938;2023-03-14T05:13:45;12.72;76.11
65876;HTU21D;52657;51.128;5.938;2023-03-14T05:16:31;12.69;76.16
65876;HTU21D;52657;51.128;5.938;2023-03-14T05:19:21;12.71;76.11
65876;HTU21D;52657;51.128;5.938;2023-03-14T05:22:06;12.65;76.15
65876;HTU21D;52657;51.128;5.938;2023-03-14T05:24:47;12.58;76.31
65876;HTU21D;52657;51.128;5.938;2023-03-14T05:27:36;12.56;76.49
65876;HTU21D;52657;51.128;5.938;2023-03-14T05:30:19;12.56;76.52
65876;HTU21D;52657;51.128;5.938;2023-03-14T05:32:58;12.57;76.58
65876;HTU21D;52657;51.128;5.938;2023-03-14T05:35:39;12.62;76.47
65876;HTU21D;52657;51.128;5.938;2023-03-14T05:38:24;12.61;76.49
65876;HTU21D;52657;51.128;5.938;2023-03-14T05:41:09;12.60;76.47
65876;HTU21D;52657;51.128;5.938;2023-03-14T05:43:56;12.55;76.65
65876;HTU21D;52657;51.128;5.938;2023-03-14T05:46:38;12.55;76.72
65876;HTU21D;52657;51.128;5.938;2023-03-14T05:49:33;12.57;76.68
65876;HTU21D;52657;51.128;5.938;2023-03-14T05:52:19;12.60;76.56
65876;HTU21D;52657;51.128;5.938;2023-03-14T05:54:58;12.61;76.61
65876;HTU21D;52657;51.128;5.938;2023-03-14T05:57:52;12.62;76.57
65876;HTU21D;52657;51.128;5.938;2023-03-14T06:00:25;12.64;76.61
65876;HTU21D;52657;51.128;5.938;2023-03-14T06:03:20;12.61;76.75
65876;HTU21D;52657;51.128;5.938;2023-03-14T06:05:50;12.61;76.82
65876;HTU21D;52657;51.128;5.938;2023-03-14T06:08:17;12.56;77.06
65876;HTU21D;52657;51.128;5.938;2023-03-14T06:10:44;12.53;77.13
65876;HTU21D;52657;51.128;5.938;2023-03-14T06:13:10;12.53;77.13
65876;HTU21D;52657;51.128;5.938;2023-03-14T06:15:36;12.60;77.06
65876;HTU21D;52657;51.128;5.938;2023-03-14T06:18:02;12.58;77.04
65876;HTU21D;52657;51.128;5.938;2023-03-14T06:20:28;12.59;76.97
65876;HTU21D;52657;51.128;5.938;2023-03-14T06:23:13;12.63;76.82
65876;HTU21D;52657;51.128;5.938;2023-03-14T06:25:38;12.64;76.91
65876;HTU21D;52657;51.128;5.938;2023-03-14T06:28:04;12.66;76.82
65876;HTU21D;52657;51.128;5.938;2023-03-14T06:30:30;12.69;76.77
65876;HTU21D;52657;51.128;5.938;2023-03-14T06:32:56;12.71;76.81
65876;HTU21D;52657;51.128;5.938;2023-03-14T06:35:23;12.69;76.85
65876;HTU21D;52657;51.128;5.938;2023-03-14T06:37:51;12.69;76.96
65876;HTU21D;52657;51.128;5.938;2023-03-14T06:40:17;12.66;77.33
65876;HTU21D;52657;51.128;5.938;2023-03-14T06:42:55;12.66;77.25
65876;HTU21D;52657;51.128;5.938;2023-03-14T06:45:22;12.67;77.37
65876;HTU21D;52657;51.128;5.938;2023-03-14T06:47:49;12.69;77.44
65876;HTU21D;52657;51.128;5.938;2023-03-14T06:50:20;12.66;77.50
65876;HTU21D;52657;51.128;5.938;2023-03-14T06:52:48;12.66;77.56
65876;HTU21D;52657;51.128;5.938;2023-03-14T06:55:18;12.69;77.63
65876;HTU21D;52657;51.128;5.938;2023-03-14T06:57:44;12.73;77.47
65876;HTU21D;52657;51.128;5.938;2023-03-14T07:00:11;12.78;77.47
65876;HTU21D;52657;51.128;5.938;2023-03-14T07:02:39;12.82;77.35
65876;HTU21D;52657;51.128;5.938;2023-03-14T07:05:05;12.81;77.15
65876;HTU21D;52657;51.128;5.938;2023-03-14T07:07:31;12.80;77.24
65876;HTU21D;52657;51.128;5.938;2023-03-14T07:09:57;12.80;77.27
65876;HTU21D;52657;51.128;5.938;2023-03-14T07:12:23;12.78;77.30
65876;HTU21D;52657;51.128;5.938;2023-03-14T07:14:49;12.79;77.39
65876;HTU21D;52657;51.128;5.938;2023-03-14T07:17:15;12.78;77.42
65876;HTU21D;52657;51.128;5.938;2023-03-14T07:19:41;12.88;77.24
65876;HTU21D;52657;51.128;5.938;2023-03-14T07:22:08;12.92;77.04
65876;HTU21D;52657;51.128;5.938;2023-03-14T07:24:34;12.94;76.84
65876;HTU21D;52657;51.128;5.938;2023-03-14T07:27:00;12.96;76.79
65876;HTU21D;52657;51.128;5.938;2023-03-14T07:29:26;12.96;76.71
65876;HTU21D;52657;51.128;5.938;2023-03-14T07:31:52;12.99;76.81
65876;HTU21D;52657;51.128;5.938;2023-03-14T07:34:19;13.02;76.85
65876;HTU21D;52657;51.128;5.938;2023-03-14T07:36:45;13.11;76.66
65876;HTU21D;52657;51.128;5.938;2023-03-14T07:39:11;13.17;76.50
65876;HTU21D;52657;51.128;5.938;2023-03-14T07:41:47;13.20;76.41
65876;HTU21D;52657;51.128;5.938;2023-03-14T07:44:40;13.23;76.12
65876;HTU21D;52657;51.128;5.938;2023-03-14T07:47:06;13.24;76.21
65876;HTU21D;52657;51.128;5.938;2023-03-14T07:49:31;13.27;76.18
65876;HTU21D;52657;51.128;5.938;2023-03-14T07:51:57;13.31;75.89
65876;HTU21D;52657;51.128;5.938;2023-03-14T07:54:23;13.26;76.24
65876;HTU21D;52657;51.128;5.938;2023-03-14T07:56:50;13.29;76.07
65876;HTU21D;52657;51.128;5.938;2023-03-14T07:59:20;13.30;76.14
65876;HTU21D;52657;51.128;5.938;2023-03-14T08:01:46;13.34;76.08
65876;HTU21D;52657;51.128;5.938;2023-03-14T08:04:13;13.35;76.00
65876;HTU21D;52657;51.128;5.938;2023-03-14T08:06:38;13.32;76.00
65876;HTU21D;52657;51.128;5.938;2023-03-14T08:09:04;13.30;76.15
65876;HTU21D;52657;51.128;5.938;2023-03-14T08:11:30;13.26;76.21
65876;HTU21D;52657;51.128;5.938;2023-03-14T08:13:59;13.29;76.24
65876;HTU21D;52657;51.128;5.938;2023-03-14T08:16:25;13.31;76.22
65876;HTU21D;52657;51.128;5.938;2023-03-14T08:18:51;13.35;76.21
65876;HTU21D;52657;51.128;5.938;2023-03-14T08:21:17;13.30;76.20
65876;HTU21D;52657;51.128;5.938;2023-03-14T08:23:43;13.26;76.15
65876;HTU21D;52657;51.128;5.938;2023-03-14T08:26:09;13.19;75.65
65876;HTU21D;52657;51.128;5.938;2023-03-14T08:28:34;13.04;74.58
65876;HTU21D;52657;51.128;5.938;2023-03-14T08:31:00;12.92;73.76
65876;HTU21D;52657;51.128;5.938;2023-03-14T08:33:28;12.79;72.43
65876;HTU21D;52657;51.128;5.938;2023-03-14T08:35:57;12.69;71.44
65876;HTU21D;52657;51.128;5.938;2023-03-14T08:38:23;12.57;70.41
65876;HTU21D;52657;51.128;5.938;2023-03-14T08:40:55;12.45;70.83
65876;HTU21D;52657;51.128;5.938;2023-03-14T08:43:21;12.41;71.16
65876;HTU21D;52657;51.128;5.938;2023-03-14T08:45:50;12.37;70.93
65876;HTU21D;52657;51.128;5.938;2023-03-14T08:48:16;12.34;70.92
65876;HTU21D;52657;51.128;5.938;2023-03-14T08:50:42;12.31;71.06
65876;HTU21D;52657;51.128;5.938;2023-03-14T08:53:07;12.30;71.35
65876;HTU21D;52657;51.128;5.938;2023-03-14T08:55:34;12.27;71.34
65876;HTU21D;52657;51.128;5.938;2023-03-14T08:57:59;12.26;71.44
65876;HTU21D;52657;51.128;5.938;2023-03-14T09:00:25;12.18;71.47
65876;HTU21D;52657;51.128;5.938;2023-03-14T09:02:51;12.16;71.58
65876;HTU21D;52657;51.128;5.938;2023-03-14T09:05:17;12.15;71.56
65876;HTU21D;52657;51.128;5.938;2023-03-14T09:07:43;12.15;70.89
65876;HTU21D;52657;51.128;5.938;2023-03-14T09:10:09;12.08;70.93
65876;HTU21D;52657;51.128;5.938;2023-03-14T09:12:35;12.08;71.10
65876;HTU21D;52657;51.128;5.938;2023-03-14T09:15:01;12.05;71.13
65876;HTU21D;52657;51.128;5.938;2023-03-14T09:17:27;12.05;71.00
65876;HTU21D;52657;51.128;5.938;2023-03-14T09:19:53;12.03;71.13
65876;HTU21D;52657;51.128;5.938;2023-03-14T09:22:19;12.07;71.33
65876;HTU21D;52657;51.128;5.938;2023-03-14T09:24:46;12.13;71.13
65876;HTU21D;52657;51.128;5.938;2023-03-14T09:27:12;12.17;70.71
65876;HTU21D;52657;51.128;5.938;2023-03-14T09:29:38;12.13;70.54
65876;HTU21D;52657;51.128;5.938;2023-03-14T09:32:03;12.12;70.61
65876;HTU21D;52657;51.128;5.938;2023-03-14T09:34:30;12.11;70.54
65876;HTU21D;52657;51.128;5.938;2023-03-14T09:36:55;12.07;70.47
65876;HTU21D;52657;51.128;5.938;2023-03-14T09:39:22;12.02;70.71
65876;HTU21D;52657;51.128;5.938;2023-03-14T09:41:51;11.93;70.61
65876;HTU21D;52657;51.128;5.938;2023-03-14T09:44:25;11.84;70.84
65876;HTU21D;52657;51.128;5.938;2023-03-14T09:46:57;11.83;71.17
65876;HTU21D;52657;51.128;5.938;2023-03-14T09:49:24;11.77;71.00
65876;HTU21D;52657;51.128;5.938;2023-03-14T09:51:54;11.79;70.92
65876;HTU21D;52657;51.128;5.938;2023-03-14T09:54:30;11.79;71.03
65876;HTU21D;52657;51.128;5.938;2023-03-14T09:56:56;11.84;71.01
65876;HTU21D;52657;51.128;5.938;2023-03-14T09:59:22;11.86;71.03
65876;HTU21D;52657;51.128;5.938;2023-03-14T10:01:48;11.89;71.32
65876;HTU21D;52657;51.128;5.938;2023-03-14T10:04:20;11.92;71.30
65876;HTU21D;52657;51.128;5.938;2023-03-14T10:06:46;12.00;71.49
65876;HTU21D;52657;51.128;5.938;2023-03-14T10:09:21;12.08;71.15
65876;HTU21D;52657;51.128;5.938;2023-03-14T10:11:55;12.10;71.22
65876;HTU21D;52657;51.128;5.938;2023-03-14T10:14:33;12.18;71.18
65876;HTU21D;52657;51.128;5.938;2023-03-14T10:17:08;12.26;71.80
65876;HTU21D;52657;51.128;5.938;2023-03-14T10:19:35;12.55;71.93
65876;HTU21D;52657;51.128;5.938;2023-03-14T10:22:04;12.87;70.99
65876;HTU21D;52657;51.128;5.938;2023-03-14T10:24:35;13.05;70.00
65876;HTU21D;52657;51.128;5.938;2023-03-14T10:27:04;13.10;68.78
65876;HTU21D;52657;51.128;5.938;2023-03-14T10:29:32;13.06;68.07
65876;HTU21D;52657;51.128;5.938;2023-03-14T10:32:06;12.99;67.93
65876;HTU21D;52657;51.128;5.938;2023-03-14T10:34:37;12.89;67.96
65876;HTU21D;52657;51.128;5.938;2023-03-14T10:37:23;12.77;67.92
65876;HTU21D;52657;51.128;5.938;2023-03-14T10:39:58;12.67;68.18
65876;HTU21D;52657;51.128;5.938;2023-03-14T10:42:34;12.59;67.99
65876;HTU21D;52657;51.128;5.938;2023-03-14T10:45:22;12.42;68.28
65876;HTU21D;52657;51.128;5.938;2023-03-14T10:47:51;12.26;68.41
65876;HTU21D;52657;51.128;5.938;2023-03-14T10:50:29;12.15;68.26
65876;HTU21D;52657;51.128;5.938;2023-03-14T10:52:57;12.02;68.91
65876;HTU21D;52657;51.128;5.938;2023-03-14T10:55:26;11.89;68.52
65876;HTU21D;52657;51.128;5.938;2023-03-14T10:57:52;11.67;65.94
65876;HTU21D;52657;51.128;5.938;2023-03-14T11:00:20;11.43;67.25
65876;HTU21D;52657;51.128;5.938;2023-03-14T11:03:08;11.31;67.72
65876;HTU21D;52657;51.128;5.938;2023-03-14T11:05:56;11.36;68.42
65876;HTU21D;52657;51.128;5.938;2023-03-14T11:11:19;11.51;67.87
65876;HTU21D;52657;51.128;5.938;2023-03-14T11:16:47;11.51;67.18
65876;HTU21D;52657;51.128;5.938;2023-03-14T11:19:29;11.45;67.11
65876;HTU21D;52657;51.128;5.938;2023-03-14T11:30:05;11.93;65.49
65876;HTU21D;52657;51.128;5.938;2023-03-14T11:32:42;11.94;64.89
65876;HTU21D;52657;51.128;5.938;2023-03-14T11:35:26;11.97;64.90
65876;HTU21D;52657;51.128;5.938;2023-03-14T11:41:02;11.74;63.09
65876;HTU21D;52657;51.128;5.938;2023-03-14T11:43:37;11.66;62.19
65876;HTU21D;52657;51.128;5.938;2023-03-14T11:46:26;11.46;59.09
65876;HTU21D;52657;51.128;5.938;2023-03-14T11:51:54;11.45;61.93
65876;HTU21D;52657;51.128;5.938;2023-03-14T11:57:04;11.56;60.35
65876;HTU21D;52657;51.128;5.938;2023-03-14T12:02:25;11.68;59.57
65876;HTU21D;52657;51.128;5.938;2023-03-14T12:10:48;11.94;60.44
65876;HTU21D;52657;51.128;5.938;2023-03-14T12:13:16;12.16;58.82
65876;HTU21D;52657;51.128;5.938;2023-03-14T12:15:54;12.07;59.49
65876;HTU21D;52657;51.128;5.938;2023-03-14T12:18:25;12.11;59.12
65876;HTU21D;52657;51.128;5.938;2023-03-14T12:20:56;12.17;59.28
65876;HTU21D;52657;51.128;5.938;2023-03-14T12:23:24;12.31;58.26
65876;HTU21D;52657;51.128;5.938;2023-03-14T12:28:43;12.51;57.94
65876;HTU21D;52657;51.128;5.938;2023-03-14T12:42:11;12.01;57.80
65876;HTU21D;52657;51.128;5.938;2023-03-14T12:44:40;11.63;58.00
65876;HTU21D;52657;51.128;5.938;2023-03-14T12:49:54;11.37;61.80
65876;HTU21D;52657;51.128;5.938;2023-03-14T12:55:17;11.12;62.51
65876;HTU21D;52657;51.128;5.938;2023-03-14T12:58:01;10.97;62.70
65876;HTU21D;52657;51.128;5.938;2023-03-14T13:00:35;10.99;63.95
65876;HTU21D;52657;51.128;5.938;2023-03-14T13:03:19;11.07;63.56
65876;HTU21D;52657;51.128;5.938;2023-03-14T13:08:41;11.13;63.49
65876;HTU21D;52657;51.128;5.938;2023-03-14T13:11:18;11.14;62.14
65876;HTU21D;52657;51.128;5.938;2023-03-14T13:13:57;10.98;63.38
65876;HTU21D;52657;51.128;5.938;2023-03-14T13:16:24;11.04;64.11
65876;HTU21D;52657;51.128;5.938;2023-03-14T13:19:00;11.08;63.84
65876;HTU21D;52657;51.128;5.938;2023-03-14T13:21:35;11.15;64.08
65876;HTU21D;52657;51.128;5.938;2023-03-14T13:24:02;11.23;63.51
65876;HTU21D;52657;51.128;5.938;2023-03-14T13:26:40;11.22;61.72
65876;HTU21D;52657;51.128;5.938;2023-03-14T13:31:51;11.12;61.73
65876;HTU21D;52657;51.128;5.938;2023-03-14T13:34:29;11.13;61.21
65876;HTU21D;52657;51.128;5.938;2023-03-14T13:36:55;11.17;60.95
65876;HTU21D;52657;51.128;5.938;2023-03-14T13:39:26;11.26;61.19
65876;HTU21D;52657;51.128;5.938;2023-03-14T13:41:57;11.33;60.27
65876;HTU21D;52657;51.128;5.938;2023-03-14T13:44:36;11.32;60.18
65876;HTU21D;52657;51.128;5.938;2023-03-14T13:47:09;11.39;60.79
65876;HTU21D;52657;51.128;5.938;2023-03-14T13:49:37;11.51;60.31
65876;HTU21D;52657;51.128;5.938;2023-03-14T13:52:04;11.60;60.22
65876;HTU21D;52657;51.128;5.938;2023-03-14T13:54:46;11.69;59.84
65876;HTU21D;52657;51.128;5.938;2023-03-14T13:57:12;11.84;60.13
65876;HTU21D;52657;51.128;5.938;2023-03-14T13:59:37;11.96;59.05
65876;HTU21D;52657;51.128;5.938;2023-03-14T14:02:11;11.98;58.64
65876;HTU21D;52657;51.128;5.938;2023-03-14T14:04:38;12.03;59.19
65876;HTU21D;52657;51.128;5.938;2023-03-14T14:07:10;12.06;58.50
65876;HTU21D;52657;51.128;5.938;2023-03-14T14:09:47;11.96;57.98
65876;HTU21D;52657;51.128;5.938;2023-03-14T14:12:34;11.87;57.92
65876;HTU21D;52657;51.128;5.938;2023-03-14T14:15:14;11.81;57.06
65876;HTU21D;52657;51.128;5.938;2023-03-14T14:20:26;11.86;57.37
65876;HTU21D;52657;51.128;5.938;2023-03-14T14:23:03;11.89;56.08
65876;HTU21D;52657;51.128;5.938;2023-03-14T14:25:30;11.89;56.26
65876;HTU21D;52657;51.128;5.938;2023-03-14T14:27:56;11.93;55.78
65876;HTU21D;52657;51.128;5.938;2023-03-14T14:30:31;11.98;55.45
65876;HTU21D;52657;51.128;5.938;2023-03-14T14:33:23;12.02;54.68
65876;HTU21D;52657;51.128;5.938;2023-03-14T14:35:53;12.04;55.45
65876;HTU21D;52657;51.128;5.938;2023-03-14T14:38:21;12.10;54.52
65876;HTU21D;52657;51.128;5.938;2023-03-14T14:40:54;12.02;54.98
65876;HTU21D;52657;51.128;5.938;2023-03-14T14:43:24;12.04;54.36
65876;HTU21D;52657;51.128;5.938;2023-03-14T14:45:53;12.04;54.07
65876;HTU21D;52657;51.128;5.938;2023-03-14T14:48:23;12.11;54.53
65876;HTU21D;52657;51.128;5.938;2023-03-14T14:53:41;12.11;52.78
65876;HTU21D;52657;51.128;5.938;2023-03-14T14:56:20;12.14;53.44
65876;HTU21D;52657;51.128;5.938;2023-03-14T14:58:49;12.21;53.27
65876;HTU21D;52657;51.128;5.938;2023-03-14T15:01:17;12.25;52.66
65876;HTU21D;52657;51.128;5.938;2023-03-14T15:03:47;12.23;52.39
65876;HTU21D;52657;51.128;5.938;2023-03-14T15:06:15;12.27;52.27
65876;HTU21D;52657;51.128;5.938;2023-03-14T15:08:46;12.28;50.30
65876;HTU21D;52657;51.128;5.938;2023-03-14T15:11:20;12.25;49.03
65876;HTU21D;52657;51.128;5.938;2023-03-14T15:13:49;12.17;47.02
65876;HTU21D;52657;51.128;5.938;2023-03-14T15:16:28;11.98;44.48
65876;HTU21D;52657;51.128;5.938;2023-03-14T15:18:57;11.84;44.33
65876;HTU21D;52657;51.128;5.938;2023-03-14T15:21:25;11.75;44.77
65876;HTU21D;52657;51.128;5.938;2023-03-14T15:23:52;11.74;45.14
65876;HTU21D;52657;51.128;5.938;2023-03-14T15:26:25;11.77;43.47
65876;HTU21D;52657;51.128;5.938;2023-03-14T15:28:51;11.75;44.40
65876;HTU21D;52657;51.128;5.938;2023-03-14T15:31:18;11.79;43.72
65876;HTU21D;52657;51.128;5.938;2023-03-14T15:33:45;11.76;44.77
65876;HTU21D;52657;51.128;5.938;2023-03-14T15:36:24;11.74;43.10
65876;HTU21D;52657;51.128;5.938;2023-03-14T15:38:52;11.66;44.51
65876;HTU21D;52657;51.128;5.938;2023-03-14T15:41:19;11.61;44.00
65876;HTU21D;52657;51.128;5.938;2023-03-14T15:43:46;11.55;44.28
65876;HTU21D;52657;51.128;5.938;2023-03-14T15:46:12;11.52;44.16
65876;HTU21D;52657;51.128;5.938;2023-03-14T15:48:38;11.44;43.84
65876;HTU21D;52657;51.128;5.938;2023-03-14T15:51:04;11.42;44.29
65876;HTU21D;52657;51.128;5.938;2023-03-14T15:53:30;11.38;43.73
65876;HTU21D;52657;51.128;5.938;2023-03-14T15:55:56;11.38;44.05
65876;HTU21D;52657;51.128;5.938;2023-03-14T15:58:21;11.40;43.90
65876;HTU21D;52657;51.128;5.938;2023-03-14T16:00:50;11.39;43.25
65876;HTU21D;52657;51.128;5.938;2023-03-14T16:03:16;11.26;44.27
65876;HTU21D;52657;51.128;5.938;2023-03-14T16:05:42;11.26;44.36
65876;HTU21D;52657;51.128;5.938;2023-03-14T16:08:08;11.23;44.65
65876;HTU21D;52657;51.128;5.938;2023-03-14T16:10:33;11.18;44.84
65876;HTU21D;52657;51.128;5.938;2023-03-14T16:12:59;11.13;44.36
65876;HTU21D;52657;51.128;5.938;2023-03-14T16:15:25;11.07;43.32
65876;HTU21D;52657;51.128;5.938;2023-03-14T16:17:55;10.92;43.60
65876;HTU21D;52657;51.128;5.938;2023-03-14T16:20:22;10.93;43.82
65876;HTU21D;52657;51.128;5.938;2023-03-14T16:22:48;10.93;43.62
65876;HTU21D;52657;51.128;5.938;2023-03-14T16:25:16;10.95;43.55
65876;HTU21D;52657;51.128;5.938;2023-03-14T16:27:43;10.94;43.51
65876;HTU21D;52657;51.128;5.938;2023-03-14T16:30:09;10.94;43.57
65876;HTU21D;52657;51.128;5.938;2023-03-14T16:32:35;10.89;43.67
65876;HTU21D;52657;51.128;5.938;2023-03-14T16:35:01;10.88;43.34
65876;HTU21D;52657;51.128;5.938;2023-03-14T16:37:27;10.88;43.09
65876;HTU21D;52657;51.128;5.938;2023-03-14T16:39:53;10.86;43.58